createdAt,value
2019-05-11T00:01:09.075Z,13.50
2019-05-11T00:03:37.069Z,13.50
2019-05-11T00:06:04.992Z,13.50
2019-05-11T00:08:32.849Z,13.80
2019-05-11T00:11:00.813Z,14.10
2019-05-11T00:13:28.708Z,13.80
2019-05-11T00:15:56.659Z,14.00
2019-05-11T00:18:24.582Z,14.10
2019-05-11T00:20:52.518Z,14.10
2019-05-11T00:23:20.495Z,14.20
2019-05-11T00:25:48.497Z,14.30
2019-05-11T00:28:16.469Z,13.90
2019-05-11T00:30:44.452Z,13.90
2019-05-11T00:33:13.518Z,13.90
2019-05-11T00:35:41.417Z,13.90
2019-05-11T00:38:09.365Z,13.60
2019-05-11T00:40:37.280Z,14.00
2019-05-11T00:43:05.211Z,13.90
2019-05-11T00:45:33.098Z,14.20
2019-05-11T00:48:01.015Z,14.10
2019-05-11T00:50:38.771Z,14.20
2019-05-11T00:52:58.722Z,13.90
2019-05-11T00:55:26.665Z,13.60
2019-05-11T00:57:54.579Z,13.70
2019-05-11T01:00:22.591Z,13.70
2019-05-11T01:02:50.498Z,13.40
2019-05-11T01:05:18.416Z,13.50
2019-05-11T01:07:46.317Z,13.20
2019-05-11T01:10:23.625Z,13.30
2019-05-11T01:12:44.091Z,12.90
2019-05-11T01:15:12.074Z,13.30
2019-05-11T01:17:40.030Z,13.30
2019-05-11T01:20:08.802Z,13.20
2019-05-11T01:22:36.693Z,13.10
2019-05-11T01:25:04.787Z,12.80
2019-05-11T01:27:32.621Z,12.90
2019-05-11T01:30:00.477Z,13.00
2019-05-11T01:32:28.374Z,12.80
2019-05-11T01:34:56.246Z,12.90
2019-05-11T01:37:24.150Z,13.00
2019-05-11T01:39:52.075Z,12.70
2019-05-11T01:42:19.992Z,12.50
2019-05-11T01:44:47.854Z,12.10
2019-05-11T01:47:15.775Z,12.60
2019-05-11T01:49:43.681Z,12.60
2019-05-11T01:52:11.580Z,12.70
2019-05-11T01:54:39.473Z,12.80
2019-05-11T01:57:07.437Z,12.50
2019-05-11T01:59:35.323Z,12.30
2019-05-11T02:02:03.366Z,12.20
2019-05-11T02:04:31.344Z,12.80
2019-05-11T02:06:59.223Z,12.70
2019-05-11T02:09:27.119Z,12.70
2019-05-11T02:11:55.378Z,12.70
2019-05-11T02:14:23.232Z,12.40
2019-05-11T02:16:51.205Z,12.40
2019-05-11T02:19:19.057Z,12.40
2019-05-11T02:21:46.960Z,11.90
2019-05-11T02:24:14.811Z,12.60
2019-05-11T02:26:42.702Z,12.50
2019-05-11T02:29:11.522Z,12.20
2019-05-11T02:31:39.390Z,12.40
2019-05-11T02:34:07.271Z,12.20
2019-05-11T02:36:35.142Z,12.00
2019-05-11T02:39:05.690Z,12.50
2019-05-11T02:41:36.731Z,12.40
2019-05-11T02:44:04.009Z,12.20
2019-05-11T02:46:31.883Z,11.90
2019-05-11T02:49:00.050Z,12.00
2019-05-11T02:51:28.862Z,12.40
2019-05-11T02:53:57.906Z,12.20
2019-05-11T02:56:26.210Z,12.40
2019-05-11T02:58:54.199Z,12.50
2019-05-11T03:01:22.184Z,12.10
2019-05-11T03:03:50.050Z,12.30
2019-05-11T03:06:17.891Z,12.00
2019-05-11T03:08:45.772Z,11.70
2019-05-11T03:11:13.625Z,11.90
2019-05-11T03:13:41.513Z,12.20
2019-05-11T03:16:10.581Z,12.20
2019-05-11T03:18:38.510Z,12.00
2019-05-11T03:21:06.428Z,11.80
2019-05-11T03:23:34.416Z,11.60
2019-05-11T03:26:02.276Z,11.90
2019-05-11T03:28:30.124Z,12.30
2019-05-11T03:30:58.021Z,12.20
2019-05-11T03:33:25.934Z,12.10
2019-05-11T03:35:53.758Z,12.00
2019-05-11T03:38:21.758Z,11.90
2019-05-11T03:40:49.640Z,12.00
2019-05-11T03:43:17.537Z,12.00
2019-05-11T03:45:45.424Z,11.80
2019-05-11T03:48:13.286Z,11.80
2019-05-11T03:50:41.552Z,12.00
2019-05-11T03:53:09.415Z,12.10
2019-05-11T03:55:37.315Z,12.50
2019-05-11T03:58:05.239Z,12.50
2019-05-11T04:00:33.116Z,12.30
2019-05-11T04:03:01.007Z,12.20
2019-05-11T04:05:28.944Z,12.50
2019-05-11T04:07:56.912Z,12.70
2019-05-11T04:10:38.381Z,12.50
2019-05-11T04:13:06.284Z,12.60
2019-05-11T04:15:34.236Z,12.10
2019-05-11T04:18:02.138Z,12.40
2019-05-11T04:20:30.163Z,11.90
2019-05-11T04:22:59.069Z,12.00
2019-05-11T04:25:27.027Z,11.80
2019-05-11T04:27:54.921Z,12.30
2019-05-11T04:30:22.839Z,12.20
2019-05-11T04:32:50.741Z,12.10
2019-05-11T04:35:18.696Z,12.30
2019-05-11T04:37:46.725Z,12.10
2019-05-11T04:40:14.655Z,12.10
2019-05-11T04:42:54.527Z,12.30
2019-05-11T04:45:12.457Z,12.00
2019-05-11T04:47:40.405Z,12.20
2019-05-11T04:50:08.485Z,12.20
2019-05-11T04:52:36.309Z,12.60
2019-05-11T04:55:04.556Z,11.90
2019-05-11T04:57:32.407Z,12.10
2019-05-11T05:00:00.348Z,12.10
2019-05-11T05:02:28.210Z,12.10
2019-05-11T05:04:56.108Z,11.90
2019-05-11T05:07:24.049Z,12.10
2019-05-11T05:09:51.977Z,12.30
2019-05-11T05:12:19.852Z,12.20
2019-05-11T05:14:48.673Z,12.80
2019-05-11T05:17:16.553Z,12.50
2019-05-11T05:19:44.492Z,12.20
2019-05-11T05:22:12.364Z,12.40
2019-05-11T05:24:40.299Z,12.30
2019-05-11T05:27:08.289Z,12.60
2019-05-11T05:29:36.195Z,12.30
2019-05-11T05:32:04.147Z,12.00
2019-05-11T05:34:32.074Z,12.30
2019-05-11T05:36:59.987Z,12.50
2019-05-11T05:39:27.925Z,12.60
2019-05-11T05:41:57.413Z,12.40
2019-05-11T05:44:27.900Z,12.70
2019-05-11T05:46:55.921Z,12.60
2019-05-11T05:49:23.782Z,12.40
2019-05-11T05:51:51.718Z,12.50
2019-05-11T05:54:19.713Z,12.00
2019-05-11T05:56:47.720Z,12.50
2019-05-11T05:59:16.741Z,11.90
2019-05-11T06:01:44.701Z,12.80
2019-05-11T06:04:12.619Z,12.80
2019-05-11T06:06:40.567Z,12.80
2019-05-11T06:09:08.578Z,12.90
2019-05-11T06:11:36.586Z,13.10
2019-05-11T06:14:04.665Z,12.90
2019-05-11T06:16:32.581Z,12.90
2019-05-11T06:19:00.601Z,13.10
2019-05-11T06:21:28.740Z,12.70
2019-05-11T06:23:56.708Z,12.50
2019-05-11T06:26:24.662Z,12.10
2019-05-11T06:28:52.652Z,12.10
2019-05-11T06:31:20.649Z,13.00
2019-05-11T06:33:48.673Z,12.60
2019-05-11T06:36:16.583Z,12.40
2019-05-11T06:38:44.531Z,13.00
2019-05-11T06:41:12.535Z,12.70
2019-05-11T06:43:40.427Z,13.20
2019-05-11T06:46:08.469Z,12.90
2019-05-11T06:48:36.393Z,13.20
2019-05-11T06:51:04.373Z,13.30
2019-05-11T06:53:32.336Z,13.20
2019-05-11T06:56:00.342Z,13.10
2019-05-11T06:58:28.276Z,13.60
2019-05-11T07:00:56.220Z,13.30
2019-05-11T07:03:24.240Z,13.70
2019-05-11T07:05:52.222Z,13.70
2019-05-11T07:08:20.258Z,13.90
2019-05-11T07:10:48.127Z,13.90
2019-05-11T07:13:16.081Z,13.00
2019-05-11T07:15:44.060Z,12.80
2019-05-11T07:18:12.114Z,13.30
2019-05-11T07:20:50.122Z,13.40
2019-05-11T07:23:11.372Z,13.30
2019-05-11T07:25:39.410Z,13.30
2019-05-11T07:28:07.530Z,13.50
2019-05-11T07:30:36.385Z,13.80
2019-05-11T07:33:04.423Z,13.60
2019-05-11T07:35:32.830Z,13.80
2019-05-11T07:38:00.864Z,12.90
2019-05-11T07:40:28.836Z,12.80
2019-05-11T07:42:59.008Z,12.50
2019-05-11T07:45:28.316Z,12.90
2019-05-11T07:47:58.775Z,12.90
2019-05-11T07:50:28.351Z,12.70
2019-05-11T07:52:58.787Z,12.80
2019-05-11T07:55:28.239Z,12.70
2019-05-11T07:57:58.623Z,12.70
2019-05-11T08:00:28.034Z,12.50
2019-05-11T08:02:58.420Z,12.40
2019-05-11T08:05:28.348Z,12.70
2019-05-11T08:07:56.690Z,12.60
2019-05-11T08:10:24.714Z,12.40
2019-05-11T08:12:52.693Z,12.30
2019-05-11T08:15:20.584Z,12.50
2019-05-11T08:17:49.014Z,12.60
2019-05-11T08:20:18.663Z,12.60
2019-05-11T08:22:48.177Z,13.00
2019-05-11T08:25:18.193Z,13.00
2019-05-11T08:27:48.577Z,12.50
2019-05-11T08:30:18.814Z,12.90
2019-05-11T08:32:49.310Z,13.00
2019-05-11T08:35:17.976Z,12.60
2019-05-11T08:37:47.883Z,12.80
2019-05-11T08:40:18.399Z,12.30
2019-05-11T08:42:48.243Z,12.40
2019-05-11T08:45:23.718Z,12.50
2019-05-11T08:47:48.504Z,12.50
2019-05-11T08:50:18.542Z,12.50
2019-05-11T08:52:47.937Z,12.90
2019-05-11T08:55:18.754Z,12.90
2019-05-11T08:57:47.983Z,12.50
2019-05-11T09:00:18.205Z,12.90
2019-05-11T09:02:49.822Z,13.40
2019-05-11T09:05:18.515Z,13.20
2019-05-11T09:07:48.328Z,12.70
2019-05-11T09:10:18.602Z,13.00
2019-05-11T09:12:48.705Z,13.00
2019-05-11T09:15:29.909Z,12.80
2019-05-11T09:17:48.613Z,13.00
2019-05-11T09:20:17.995Z,13.10
2019-05-11T09:22:48.513Z,12.90
2019-05-11T09:25:18.378Z,13.30
2019-05-11T09:27:48.257Z,13.60
2019-05-11T09:30:18.469Z,13.10
2019-05-11T09:32:47.822Z,13.40
2019-05-11T09:35:18.658Z,13.00
2019-05-11T09:37:48.240Z,13.30
2019-05-11T09:40:18.252Z,13.10
2019-05-11T09:42:47.901Z,12.70
2019-05-11T09:45:18.426Z,13.00
2019-05-11T09:47:47.747Z,12.90
2019-05-11T09:50:17.839Z,13.10
2019-05-11T09:52:46.054Z,12.90
2019-05-11T09:55:14.359Z,13.00
2019-05-11T09:57:42.432Z,13.40
2019-05-11T10:00:10.997Z,13.00
2019-05-11T10:02:39.067Z,12.80
2019-05-11T10:05:08.367Z,12.60
2019-05-11T10:07:38.097Z,13.00
2019-05-11T10:10:08.934Z,13.10
2019-05-11T10:12:37.985Z,13.30
2019-05-11T10:15:08.365Z,12.60
2019-05-11T10:17:38.300Z,13.10
2019-05-11T10:20:09.146Z,13.20
2019-05-11T10:22:38.463Z,13.40
2019-05-11T10:25:09.155Z,13.00
2019-05-11T10:27:38.311Z,13.20
2019-05-11T10:30:08.435Z,13.10
2019-05-11T10:32:37.905Z,13.20
2019-05-11T10:35:07.974Z,13.90
2019-05-11T10:37:38.893Z,14.10
2019-05-11T10:40:09.507Z,13.90
2019-05-11T10:42:38.026Z,13.70
2019-05-11T10:45:08.845Z,13.60
2019-05-11T10:47:38.254Z,14.20
2019-05-11T10:50:08.551Z,13.90
2019-05-11T10:52:37.879Z,14.30
2019-05-11T10:55:08.632Z,14.10
2019-05-11T10:57:38.730Z,13.50
2019-05-11T11:00:08.799Z,13.30
2019-05-11T11:02:38.445Z,13.40
2019-05-11T11:05:10.253Z,13.80
2019-05-11T11:07:38.605Z,13.00
2019-05-11T11:10:08.846Z,13.70
2019-05-11T11:12:38.455Z,13.30
2019-05-11T11:15:07.976Z,13.50
2019-05-11T11:17:38.205Z,13.40
2019-05-11T11:20:08.643Z,12.80
2019-05-11T11:22:43.488Z,13.00
2019-05-11T11:25:07.949Z,13.40
2019-05-11T11:27:38.033Z,13.00
2019-05-11T11:30:08.943Z,13.10
2019-05-11T11:32:38.336Z,13.50
2019-05-11T11:35:08.520Z,13.60
2019-05-11T11:37:38.735Z,13.90
2019-05-11T11:40:08.406Z,13.40
2019-05-11T11:42:37.761Z,13.50
2019-05-11T11:45:08.015Z,13.20
2019-05-11T11:47:38.353Z,13.10
2019-05-11T11:50:09.126Z,13.20
2019-05-11T11:52:38.273Z,13.20
2019-05-11T11:55:08.308Z,13.40
2019-05-11T11:57:38.016Z,13.20
2019-05-11T12:00:09.146Z,13.50
2019-05-11T12:02:38.760Z,13.70
2019-05-11T12:05:08.801Z,13.20
2019-05-11T12:07:38.658Z,13.10
2019-05-11T12:10:07.961Z,12.50
2019-05-11T12:12:38.441Z,12.70
2019-05-11T12:15:05.863Z,12.60
2019-05-11T12:17:34.000Z,12.60
2019-05-11T12:20:02.062Z,12.50
2019-05-11T12:22:30.157Z,12.60
2019-05-11T12:24:58.892Z,12.60
2019-05-11T12:27:28.705Z,12.60
2019-05-11T12:29:58.163Z,12.70
2019-05-11T12:32:38.298Z,12.90
2019-05-11T12:35:06.149Z,13.00
2019-05-11T12:37:42.965Z,12.80
2019-05-11T12:40:11.452Z,12.50
2019-05-11T12:42:39.455Z,12.60
2019-05-11T12:45:08.519Z,12.50
2019-05-11T12:47:38.514Z,12.90
2019-05-11T12:50:09.281Z,12.80
2019-05-11T12:52:38.340Z,12.90
2019-05-11T12:55:08.691Z,12.30
2019-05-11T12:57:38.624Z,12.10
2019-05-11T13:00:08.799Z,12.50
2019-05-11T13:02:38.805Z,12.60
2019-05-11T13:05:08.818Z,12.80
2019-05-11T13:07:39.277Z,12.80
2019-05-11T13:10:09.010Z,12.70
2019-05-11T13:12:38.603Z,13.30
2019-05-11T13:15:08.526Z,13.00
2019-05-11T13:17:38.399Z,12.90
2019-05-11T13:20:08.649Z,12.10
2019-05-11T13:22:38.198Z,12.80
2019-05-11T13:25:08.601Z,12.70
2019-05-11T13:27:38.598Z,13.00
2019-05-11T13:30:07.967Z,12.90
2019-05-11T13:32:38.427Z,13.20
2019-05-11T13:35:06.229Z,13.10
2019-05-11T13:37:34.219Z,13.20
2019-05-11T13:40:02.263Z,12.40
2019-05-11T13:42:30.314Z,13.10
2019-05-11T13:44:58.514Z,12.90
2019-05-11T13:47:28.307Z,12.90
2019-05-11T13:49:58.262Z,13.90
2019-05-11T13:52:28.514Z,13.60
2019-05-11T13:54:58.313Z,13.60
2019-05-11T13:57:28.486Z,13.10
2019-05-11T13:59:58.000Z,12.70
2019-05-11T14:02:28.409Z,13.10
2019-05-11T14:04:57.890Z,13.40
2019-05-11T14:07:27.598Z,12.90
2019-05-11T14:09:55.657Z,13.00
2019-05-11T14:12:23.819Z,13.20
2019-05-11T14:14:51.777Z,13.10
2019-05-11T14:17:20.360Z,12.90
2019-05-11T14:19:49.450Z,12.90
2019-05-11T14:22:18.936Z,13.00
2019-05-11T14:24:48.303Z,12.90
2019-05-11T14:27:17.828Z,13.20
2019-05-11T14:29:48.074Z,13.10
2019-05-11T14:32:17.688Z,12.80
2019-05-11T14:34:48.346Z,13.80
2019-05-11T14:37:18.043Z,13.90
2019-05-11T14:39:48.142Z,13.90
2019-05-11T14:42:21.667Z,14.10
2019-05-11T14:44:48.247Z,13.20
2019-05-11T14:47:18.046Z,13.20
2019-05-11T14:49:49.237Z,13.30
2019-05-11T14:52:18.743Z,13.80
2019-05-11T14:54:48.548Z,13.50
2019-05-11T14:57:18.680Z,13.60
2019-05-11T14:59:48.259Z,13.60
2019-05-11T15:02:34.852Z,13.60
2019-05-11T15:05:02.969Z,14.10
2019-05-11T15:07:31.043Z,13.70
2019-05-11T15:09:59.128Z,13.40
2019-05-11T15:12:28.733Z,13.40
2019-05-11T15:14:59.032Z,13.70
2019-05-11T15:17:28.182Z,13.20
2019-05-11T15:19:58.042Z,12.90
2019-05-11T15:22:28.585Z,13.50
2019-05-11T15:24:58.544Z,13.40
2019-05-11T15:27:26.076Z,12.80
2019-05-11T15:29:54.040Z,12.90
2019-05-11T15:32:22.084Z,12.60
2019-05-11T15:34:50.218Z,12.30
2019-05-11T15:37:18.234Z,12.80
2019-05-11T15:39:48.246Z,12.80
2019-05-11T15:42:19.528Z,12.80
2019-05-11T15:44:48.321Z,12.70
2019-05-11T15:47:16.171Z,12.70
2019-05-11T15:49:44.332Z,12.60
2019-05-11T15:52:12.378Z,12.20
2019-05-11T15:54:40.454Z,12.20
2019-05-11T15:57:08.546Z,12.40
2019-05-11T15:59:38.831Z,12.60
2019-05-11T16:02:08.639Z,12.30
2019-05-11T16:04:38.216Z,12.50
2019-05-11T16:07:08.236Z,12.10
2019-05-11T16:09:38.076Z,12.60
2019-05-11T16:12:06.211Z,11.80
2019-05-11T16:14:34.274Z,12.30
2019-05-11T16:17:02.243Z,12.10
2019-05-11T16:19:30.432Z,12.20
2019-05-11T16:21:58.463Z,12.10
2019-05-11T16:24:26.578Z,12.60
2019-05-11T16:26:54.547Z,12.40
2019-05-11T16:29:23.787Z,12.10
2019-05-11T16:31:51.805Z,12.30
2019-05-11T16:34:19.784Z,12.10
2019-05-11T16:36:48.058Z,12.10
2019-05-11T16:39:18.500Z,12.20
2019-05-11T16:41:48.518Z,12.30
2019-05-11T16:44:18.365Z,12.50
2019-05-11T16:46:50.979Z,12.20
2019-05-11T16:49:28.480Z,12.20
2019-05-11T16:51:49.395Z,12.10
2019-05-11T16:54:17.462Z,11.70
2019-05-11T16:56:45.511Z,11.80
2019-05-11T16:59:13.579Z,12.00
2019-05-11T17:01:41.970Z,11.70
2019-05-11T17:04:09.947Z,11.80
2019-05-11T17:06:38.747Z,11.80
2019-05-11T17:09:08.953Z,11.30
2019-05-11T17:11:38.357Z,11.50
2019-05-11T17:14:08.356Z,11.50
2019-05-11T17:16:38.716Z,11.50
2019-05-11T17:19:07.870Z,11.40
2019-05-11T17:21:38.180Z,11.40
2019-05-11T17:24:06.561Z,11.60
2019-05-11T17:26:34.609Z,11.20
2019-05-11T17:29:02.652Z,11.00
2019-05-11T17:31:30.811Z,11.20
2019-05-11T17:33:59.007Z,11.20
2019-05-11T17:36:39.387Z,11.20
2019-05-11T17:39:07.737Z,11.50
2019-05-11T17:41:38.431Z,11.10
2019-05-11T17:44:07.969Z,11.10
2019-05-11T17:46:38.437Z,11.00
2019-05-11T17:49:07.903Z,10.80
2019-05-11T17:51:37.938Z,11.10
2019-05-11T17:54:07.898Z,10.70
2019-05-11T17:56:38.560Z,11.00
2019-05-11T17:59:08.093Z,11.20
2019-05-11T18:01:36.021Z,11.20
2019-05-11T18:04:07.975Z,11.30
2019-05-11T18:06:38.296Z,11.40
2019-05-11T18:09:08.446Z,11.20
2019-05-11T18:11:38.054Z,11.20
2019-05-11T18:14:08.384Z,11.10
2019-05-11T18:16:36.492Z,11.20
2019-05-11T18:19:04.627Z,11.30
2019-05-11T18:21:32.630Z,11.40
2019-05-11T18:24:00.823Z,11.10
2019-05-11T18:26:28.948Z,11.10
2019-05-11T18:28:58.644Z,11.30
2019-05-11T18:31:28.537Z,11.30
2019-05-11T18:33:58.091Z,11.30
2019-05-11T18:36:28.785Z,11.40
2019-05-11T18:38:56.295Z,11.20
2019-05-11T18:41:24.741Z,11.50
2019-05-11T18:43:52.810Z,11.40
2019-05-11T18:46:21.028Z,11.20
2019-05-11T18:48:51.068Z,11.30
2019-05-11T18:51:19.395Z,10.80
2019-05-11T18:53:48.304Z,11.10
2019-05-11T18:56:20.260Z,11.40
2019-05-11T18:58:48.245Z,11.60
2019-05-11T19:01:17.846Z,11.30
2019-05-11T19:03:47.897Z,10.80
2019-05-11T19:06:18.398Z,11.00
2019-05-11T19:08:47.858Z,11.30
2019-05-11T19:11:18.292Z,10.90
2019-05-11T19:13:47.801Z,11.00
2019-05-11T19:16:19.552Z,11.10
2019-05-11T19:18:48.768Z,11.70
2019-05-11T19:21:18.017Z,11.70
2019-05-11T19:23:48.603Z,11.70
2019-05-11T19:26:17.832Z,11.70
2019-05-11T19:28:46.203Z,11.50
2019-05-11T19:31:15.285Z,11.60
2019-05-11T19:33:45.676Z,11.50
2019-05-11T19:36:13.954Z,11.80
2019-05-11T19:38:41.991Z,11.20
2019-05-11T19:41:10.110Z,11.50
2019-05-11T19:43:38.320Z,11.50
2019-05-11T19:46:08.661Z,11.50
2019-05-11T19:48:38.477Z,11.70
2019-05-11T19:51:09.138Z,11.30
2019-05-11T19:53:38.442Z,11.40
2019-05-11T19:56:07.796Z,11.50
2019-05-11T19:58:38.069Z,11.10
2019-05-11T20:01:08.482Z,11.30
2019-05-11T20:03:37.865Z,11.30
2019-05-11T20:06:08.542Z,11.40
2019-05-11T20:08:35.941Z,11.50
2019-05-11T20:11:03.929Z,11.50
2019-05-11T20:13:32.071Z,11.60
2019-05-11T20:16:00.210Z,11.40
2019-05-11T20:18:28.911Z,11.30
2019-05-11T20:20:57.349Z,11.40
2019-05-11T20:23:25.366Z,11.40
2019-05-11T20:25:54.609Z,11.40
2019-05-11T20:28:22.679Z,11.30
2019-05-11T20:30:50.828Z,11.10
2019-05-11T20:33:19.125Z,11.20
2019-05-11T20:35:48.768Z,11.00
2019-05-11T20:38:18.718Z,11.00
2019-05-11T20:40:48.424Z,10.90
2019-05-11T20:43:18.540Z,10.50
2019-05-11T20:45:48.586Z,10.70
2019-05-11T20:48:18.479Z,10.70
2019-05-11T20:50:48.361Z,10.90
2019-05-11T20:53:18.028Z,10.60
2019-05-11T20:55:47.936Z,10.70
2019-05-11T20:58:18.820Z,10.50
2019-05-11T21:00:46.056Z,10.50
2019-05-11T21:03:14.110Z,10.80
2019-05-11T21:05:42.017Z,10.70
2019-05-11T21:08:10.905Z,10.70
2019-05-11T21:10:39.902Z,10.80
2019-05-11T21:13:08.570Z,11.20
2019-05-11T21:15:38.493Z,10.80
2019-05-11T21:18:08.078Z,11.10
2019-05-11T21:20:38.013Z,11.00
2019-05-11T21:23:08.263Z,11.00
2019-05-11T21:25:37.799Z,11.10
2019-05-11T21:28:08.308Z,10.80
2019-05-11T21:30:39.660Z,10.70
2019-05-11T21:33:08.476Z,10.80
2019-05-11T21:35:38.454Z,10.70
2019-05-11T21:38:06.151Z,10.80
2019-05-11T21:40:34.215Z,10.80
2019-05-11T21:43:02.254Z,10.80
2019-05-11T21:45:30.225Z,10.90
2019-05-11T21:47:58.265Z,10.60
2019-05-11T21:50:27.968Z,10.30
2019-05-11T21:52:56.099Z,9.90
2019-05-11T21:55:24.097Z,10.00
2019-05-11T21:57:52.152Z,10.00
2019-05-11T22:00:21.003Z,9.80
2019-05-11T22:02:50.865Z,9.80
2019-05-11T22:05:20.840Z,9.90
2019-05-11T22:07:54.978Z,10.00
2019-05-11T22:10:23.033Z,10.00
2019-05-11T22:12:51.093Z,9.60
2019-05-11T22:15:19.188Z,10.00
2019-05-11T22:17:48.037Z,9.90
2019-05-11T22:20:18.441Z,9.60
2019-05-11T22:22:47.660Z,9.80
2019-05-11T22:25:18.037Z,9.80
2019-05-11T22:27:45.665Z,9.70
2019-05-11T22:30:14.887Z,9.70
2019-05-11T22:32:42.860Z,9.60
2019-05-11T22:35:10.849Z,10.00
2019-05-11T22:37:40.029Z,9.80
2019-05-11T22:40:09.008Z,9.60
2019-05-11T22:42:37.066Z,9.90
2019-05-11T22:45:08.508Z,9.70
2019-05-11T22:47:38.829Z,9.80
2019-05-11T22:50:07.876Z,9.70
2019-05-11T22:52:37.345Z,9.70
2019-05-11T22:55:08.884Z,9.60
2019-05-11T22:57:38.085Z,9.90
2019-05-11T23:00:08.218Z,9.90
2019-05-11T23:02:38.361Z,9.60
2019-05-11T23:05:08.581Z,9.40
2019-05-11T23:07:37.722Z,9.50
2019-05-11T23:10:08.625Z,9.50
2019-05-11T23:12:38.389Z,9.50
2019-05-11T23:15:12.099Z,9.40
2019-05-11T23:17:40.689Z,9.20
2019-05-11T23:20:09.890Z,9.40
2019-05-11T23:22:56.051Z,9.50
2019-05-11T23:25:18.757Z,9.60
2019-05-11T23:27:48.642Z,9.60
2019-05-11T23:30:19.631Z,9.70
2019-05-11T23:32:49.012Z,9.30
2019-05-11T23:35:38.195Z,9.70
2019-05-11T23:38:06.232Z,9.50
2019-05-11T23:40:34.155Z,9.70
2019-05-11T23:43:02.117Z,9.70
2019-05-11T23:45:29.999Z,9.60
2019-05-11T23:47:58.899Z,9.50
2019-05-11T23:50:28.127Z,9.70
2019-05-11T23:53:06.231Z,9.50
2019-05-11T23:55:28.727Z,9.70
2019-05-11T23:57:57.620Z,9.30
